Time;durP1;ratioP1;P1;durP2;ratioP2;P2;SDS_P1;SDS_P2;PMS_P1;PMS_P2;Temp;Humidity;BMP_temperature;BMP_pressure;BME280_temperature;BME280_humidity;BME280_pressure;Samples;Min_cycle;Max_cycle;Signal;HPM_P1;HPM_P2
2021/05/04 00:01:11;;;;;;;9.60;8.98;;;;;;;;;;5024421;28;20052;-47
2021/05/04 00:03:37;;;;;;;8.73;8.50;;;;;;;;;;5022877;28;20129;-44
2021/05/04 00:06:04;;;;;;;10.25;10.05;;;;;;;;;;5026771;28;20406;-46
2021/05/04 00:08:30;;;;;;;11.30;10.65;;;;;;;;;;5029109;28;20079;-48
2021/05/04 00:10:56;;;;;;;9.48;9.35;;;;;;;;;;5031477;28;20060;-48
2021/05/04 00:13:23;;;;;;;12.25;12.05;;;;;;;;;;5027435;28;20061;-45
2021/05/04 00:15:49;;;;;;;12.27;11.98;;;;;;;;;;5031124;28;20156;-45
2021/05/04 00:18:16;;;;;;;13.48;13.18;;;;;;;;;;5028810;28;20387;-43
2021/05/04 00:20:42;;;;;;;12.80;12.25;;;;;;;;;;5029216;28;20037;-44
2021/05/04 00:23:09;;;;;;;14.90;14.63;;;;;;;;;;5026715;28;20034;-44
2021/05/04 00:25:35;;;;;;;14.40;13.98;;;;;;;;;;5030722;28;20092;-45
2021/05/04 00:28:02;;;;;;;15.95;15.55;;;;;;;;;;5026634;28;20650;-44
2021/05/04 00:30:32;;;;;;;16.70;16.40;;;;;;;;;;5022518;28;20041;-46
2021/05/04 00:32:59;;;;;;;16.98;16.63;;;;;;;;;;5026236;28;20128;-44
2021/05/04 00:35:25;;;;;;;16.83;16.35;;;;;;;;;;5028555;28;20038;-44
2021/05/04 00:37:51;;;;;;;16.33;15.73;;;;;;;;;;5029885;28;20111;-44
2021/05/04 00:40:17;;;;;;;18.17;17.65;;;;;;;;;;5029864;28;20108;-44
2021/05/04 00:42:44;;;;;;;18.92;18.25;;;;;;;;;;5027417;28;20033;-44
2021/05/04 00:45:24;;;;;;;18.63;18.05;;;;;;;;;;5031279;28;20501;-44
2021/05/04 00:47:50;;;;;;;17.20;16.90;;;;;;;;;;5026021;28;21481;-44
2021/05/04 00:50:16;;;;;;;18.52;17.92;;;;;;;;;;5031207;28;20466;-48
2021/05/04 00:52:42;;;;;;;17.65;17.00;;;;;;;;;;5030247;28;20043;-47
2021/05/04 00:55:09;;;;;;;17.83;16.83;;;;;;;;;;5026117;28;20132;-47
2021/05/04 00:57:36;;;;;;;18.00;17.42;;;;;;;;;;5029703;28;20057;-46
2021/05/04 01:00:04;;;;;;;17.67;17.35;;;;;;;;;;5028585;28;20041;-45
2021/05/04 01:02:31;;;;;;;17.75;17.48;;;;;;;;;;5029650;28;20684;-45
2021/05/04 01:04:58;;;;;;;18.63;17.98;;;;;;;;;;5028760;28;20371;-44
2021/05/04 01:07:26;;;;;;;17.17;16.80;;;;;;;;;;5025714;28;20128;-44
2021/05/04 01:09:53;;;;;;;17.25;16.92;;;;;;;;;;5029766;28;20041;-44
2021/05/04 01:12:19;;;;;;;18.13;17.52;;;;;;;;;;5027012;28;20046;-44
2021/05/04 01:14:46;;;;;;;18.15;17.52;;;;;;;;;;5029770;28;20584;-44
2021/05/04 01:17:12;;;;;;;17.65;17.13;;;;;;;;;;5027364;28;20038;-43
2021/05/04 01:19:39;;;;;;;18.00;17.25;;;;;;;;;;5026386;28;20048;-46
2021/05/04 01:22:05;;;;;;;19.75;18.95;;;;;;;;;;5030403;28;20072;-44
2021/05/04 01:24:32;;;;;;;18.40;18.10;;;;;;;;;;5028451;28;20040;-45
2021/05/04 01:26:59;;;;;;;20.05;19.50;;;;;;;;;;5028377;28;20037;-45
2021/05/04 01:29:26;;;;;;;18.85;18.40;;;;;;;;;;5027255;28;20036;-47
2021/05/04 01:31:53;;;;;;;19.58;18.50;;;;;;;;;;5012369;28;20068;-44
2021/05/04 01:34:19;;;;;;;18.60;18.17;;;;;;;;;;5027667;28;20137;-45
2021/05/04 01:36:46;;;;;;;18.40;17.77;;;;;;;;;;5021828;28;20036;-44
2021/05/04 01:39:12;;;;;;;19.42;18.90;;;;;;;;;;5029836;28;20033;-47
2021/05/04 01:41:39;;;;;;;18.15;17.40;;;;;;;;;;5027891;28;20045;-45
2021/05/04 01:44:06;;;;;;;18.88;18.15;;;;;;;;;;5030237;28;20037;-44
2021/05/04 01:46:33;;;;;;;19.10;18.23;;;;;;;;;;5026083;28;20057;-44
2021/05/04 01:49:06;;;;;;;19.02;18.42;;;;;;;;;;5028728;28;20120;-44
2021/05/04 01:51:34;;;;;;;20.08;19.23;;;;;;;;;;5025935;28;20076;-44
2021/05/04 01:54:00;;;;;;;18.30;17.80;;;;;;;;;;5028242;28;20430;-44
2021/05/04 01:56:26;;;;;;;18.50;17.50;;;;;;;;;;5029787;28;20124;-44
2021/05/04 01:59:00;;;;;;;18.63;18.15;;;;;;;;;;5026290;28;20061;-45
2021/05/04 02:01:27;;;;;;;18.48;18.00;;;;;;;;;;5026957;28;20096;-43
2021/05/04 02:03:53;;;;;;;18.25;17.67;;;;;;;;;;5027946;28;20056;-45
2021/05/04 02:06:19;;;;;;;19.10;18.50;;;;;;;;;;5028091;28;20044;-45
2021/05/04 02:08:45;;;;;;;20.13;19.38;;;;;;;;;;5024994;28;20461;-46
2021/05/04 02:11:12;;;;;;;19.35;18.38;;;;;;;;;;5024919;28;20136;-44
2021/05/04 02:13:39;;;;;;;18.55;17.77;;;;;;;;;;5028143;28;20034;-44
2021/05/04 02:16:05;;;;;;;18.92;18.42;;;;;;;;;;5029251;28;20326;-47
2021/05/04 02:18:32;;;;;;;20.52;19.90;;;;;;;;;;5024924;28;20103;-44
2021/05/04 02:20:58;;;;;;;19.77;19.15;;;;;;;;;;5018953;28;20072;-45
2021/05/04 02:23:24;;;;;;;20.40;19.60;;;;;;;;;;5021823;28;20034;-45
2021/05/04 02:25:51;;;;;;;19.73;19.13;;;;;;;;;;5030062;28;20068;-47
2021/05/04 02:28:18;;;;;;;19.45;19.13;;;;;;;;;;5027782;28;20520;-48
2021/05/04 02:30:44;;;;;;;19.55;19.15;;;;;;;;;;5025856;28;20374;-46
2021/05/04 02:33:10;;;;;;;20.38;19.83;;;;;;;;;;5026526;28;20123;-47
2021/05/04 02:35:37;;;;;;;20.80;20.20;;;;;;;;;;5026844;28;20037;-44
2021/05/04 02:38:03;;;;;;;19.92;19.50;;;;;;;;;;5029469;28;20033;-45
2021/05/04 02:40:29;;;;;;;21.17;20.58;;;;;;;;;;5026162;28;20052;-45
2021/05/04 02:42:55;;;;;;;20.25;19.85;;;;;;;;;;5025237;28;20069;-45
2021/05/04 02:45:22;;;;;;;20.23;19.60;;;;;;;;;;5028873;28;20401;-44
2021/05/04 02:47:48;;;;;;;21.20;20.55;;;;;;;;;;5029040;28;20042;-43
2021/05/04 02:50:14;;;;;;;20.90;20.30;;;;;;;;;;5031716;28;20033;-44
2021/05/04 02:52:41;;;;;;;19.25;18.95;;;;;;;;;;5030767;28;20147;-44
2021/05/04 02:55:07;;;;;;;22.35;21.52;;;;;;;;;;5030946;28;20052;-43
2021/05/04 02:57:33;;;;;;;20.17;19.88;;;;;;;;;;5026886;28;20046;-45
2021/05/04 03:00:00;;;;;;;19.38;19.08;;;;;;;;;;5021089;28;20429;-46
2021/05/04 03:02:26;;;;;;;21.75;21.15;;;;;;;;;;5027486;28;20064;-44
2021/05/04 03:04:53;;;;;;;20.67;19.80;;;;;;;;;;5031021;28;20034;-43
2021/05/04 03:07:19;;;;;;;20.80;20.27;;;;;;;;;;5033162;28;20128;-44
2021/05/04 03:09:45;;;;;;;19.23;18.23;;;;;;;;;;5028691;28;20082;-45
2021/05/04 03:12:12;;;;;;;17.75;17.40;;;;;;;;;;5027681;28;20396;-44
2021/05/04 03:14:38;;;;;;;19.80;19.10;;;;;;;;;;5032388;28;20506;-45
2021/05/04 03:17:05;;;;;;;20.20;19.70;;;;;;;;;;5032141;28;20053;-45
2021/05/04 03:19:31;;;;;;;20.13;19.40;;;;;;;;;;5030790;28;20496;-46
2021/05/04 03:21:57;;;;;;;20.85;20.35;;;;;;;;;;5029449;28;20045;-44
2021/05/04 03:24:23;;;;;;;21.20;20.17;;;;;;;;;;5031433;28;20128;-44
2021/05/04 03:26:54;;;;;;;20.00;19.70;;;;;;;;;;5032032;28;20731;-43
2021/05/04 03:29:25;;;;;;;19.42;19.13;;;;;;;;;;5030158;28;20478;-43
2021/05/04 03:31:52;;;;;;;19.42;19.13;;;;;;;;;;5031516;28;20099;-45
2021/05/04 03:34:19;;;;;;;19.88;19.58;;;;;;;;;;5030004;28;20045;-45
2021/05/04 03:36:45;;;;;;;22.17;21.17;;;;;;;;;;5030298;28;20367;-43
2021/05/04 03:39:11;;;;;;;22.48;21.75;;;;;;;;;;5031036;28;20045;-43
2021/05/04 03:41:38;;;;;;;19.55;19.05;;;;;;;;;;5028693;28;20386;-43
2021/05/04 03:44:04;;;;;;;21.45;20.88;;;;;;;;;;5031528;28;20037;-43
2021/05/04 03:46:30;;;;;;;20.08;19.50;;;;;;;;;;5030052;28;20045;-46
2021/05/04 03:48:57;;;;;;;21.73;20.92;;;;;;;;;;5031670;28;20080;-44
2021/05/04 03:51:23;;;;;;;19.40;19.00;;;;;;;;;;5029506;28;20045;-44
2021/05/04 03:53:49;;;;;;;23.90;23.25;;;;;;;;;;5032192;28;20040;-44
2021/05/04 03:56:15;;;;;;;23.75;22.85;;;;;;;;;;5030466;28;20069;-44
2021/05/04 03:58:41;;;;;;;21.50;20.75;;;;;;;;;;5028636;28;20108;-44
2021/05/04 04:01:08;;;;;;;21.90;21.40;;;;;;;;;;5031912;28;20045;-45
2021/05/04 04:03:34;;;;;;;19.92;19.52;;;;;;;;;;5028680;28;20547;-45
2021/05/04 04:06:00;;;;;;;22.67;22.10;;;;;;;;;;5031346;28;20050;-45
2021/05/04 04:08:27;;;;;;;20.90;19.90;;;;;;;;;;5030854;28;20051;-44
2021/05/04 04:10:53;;;;;;;20.73;20.42;;;;;;;;;;5030696;28;20037;-44
2021/05/04 04:13:19;;;;;;;24.83;23.48;;;;;;;;;;5031267;28;20608;-44
2021/05/04 04:15:46;;;;;;;21.65;21.25;;;;;;;;;;5028500;28;20038;-45
2021/05/04 04:18:13;;;;;;;22.15;21.58;;;;;;;;;;5027936;28;20037;-44
2021/05/04 04:20:39;;;;;;;22.73;22.13;;;;;;;;;;5028333;28;20117;-43
2021/05/04 04:23:06;;;;;;;22.35;21.75;;;;;;;;;;5028317;28;20033;-43
2021/05/04 04:25:32;;;;;;;22.73;22.15;;;;;;;;;;5029992;28;20103;-44
2021/05/04 04:27:59;;;;;;;21.52;21.02;;;;;;;;;;5027636;28;20103;-43
2021/05/04 04:30:26;;;;;;;24.80;23.90;;;;;;;;;;5031810;28;20045;-43
2021/05/04 04:32:52;;;;;;;20.05;19.75;;;;;;;;;;5027833;28;20442;-44
2021/05/04 04:35:18;;;;;;;23.08;22.50;;;;;;;;;;5029398;28;20112;-43
2021/05/04 04:37:45;;;;;;;23.52;22.85;;;;;;;;;;5031279;28;20052;-43
2021/05/04 04:40:11;;;;;;;21.35;20.67;;;;;;;;;;5028213;28;20528;-44
2021/05/04 04:42:38;;;;;;;22.00;21.55;;;;;;;;;;5030578;28;20438;-43
2021/05/04 04:45:04;;;;;;;22.05;21.35;;;;;;;;;;5029983;28;20087;-43
2021/05/04 04:47:31;;;;;;;23.38;22.58;;;;;;;;;;5028895;28;20088;-47
2021/05/04 04:49:57;;;;;;;22.95;22.25;;;;;;;;;;5028938;28;20044;-43
2021/05/04 04:52:23;;;;;;;22.05;21.65;;;;;;;;;;5016549;28;20041;-47
2021/05/04 04:54:49;;;;;;;22.98;22.25;;;;;;;;;;5030758;28;20083;-46
2021/05/04 04:57:16;;;;;;;22.08;21.42;;;;;;;;;;5027564;28;20540;-44
2021/05/04 04:59:43;;;;;;;22.45;21.75;;;;;;;;;;5027247;28;20033;-44
2021/05/04 05:02:09;;;;;;;21.00;20.60;;;;;;;;;;5027315;28;20119;-46
2021/05/04 05:04:35;;;;;;;21.05;20.23;;;;;;;;;;5029934;28;20417;-45
2021/05/04 05:07:05;;;;;;;22.08;21.40;;;;;;;;;;5029963;28;20136;-45
2021/05/04 05:09:35;;;;;;;24.48;23.58;;;;;;;;;;5027586;28;20080;-44
2021/05/04 05:12:02;;;;;;;21.75;21.17;;;;;;;;;;5028257;28;20696;-45
2021/05/04 05:14:28;;;;;;;22.52;21.83;;;;;;;;;;5026764;28;20434;-45
2021/05/04 05:16:54;;;;;;;21.80;21.10;;;;;;;;;;5029111;28;20056;-45
2021/05/04 05:19:21;;;;;;;21.65;20.95;;;;;;;;;;5028023;28;20689;-44
2021/05/04 05:21:47;;;;;;;22.38;21.73;;;;;;;;;;5028758;28;20073;-46
2021/05/04 05:24:13;;;;;;;23.23;22.10;;;;;;;;;;5030662;28;20052;-44
2021/05/04 05:26:40;;;;;;;23.35;22.15;;;;;;;;;;5024063;28;20052;-47
2021/05/04 05:29:06;;;;;;;22.40;21.70;;;;;;;;;;5022535;28;20080;-46
2021/05/04 05:31:34;;;;;;;23.50;22.55;;;;;;;;;;5026736;28;20071;-46
2021/05/04 05:34:01;;;;;;;24.27;23.13;;;;;;;;;;5020436;28;20160;-45
2021/05/04 05:36:27;;;;;;;23.20;22.42;;;;;;;;;;5029665;28;20045;-46
2021/05/04 05:38:53;;;;;;;18.23;17.75;;;;;;;;;;5026506;28;20038;-45
2021/05/04 05:41:20;;;;;;;22.92;21.95;;;;;;;;;;5030385;28;20033;-47
2021/05/04 05:43:47;;;;;;;20.23;19.80;;;;;;;;;;5026904;28;20572;-44
2021/05/04 05:46:13;;;;;;;19.25;18.90;;;;;;;;;;5015748;28;20081;-45
2021/05/04 05:48:41;;;;;;;20.58;20.20;;;;;;;;;;5027580;28;20049;-46
2021/05/04 05:51:08;;;;;;;19.85;19.25;;;;;;;;;;5025724;28;20030;-45
2021/05/04 05:53:34;;;;;;;19.67;19.05;;;;;;;;;;5014720;28;20116;-45
2021/05/04 05:56:00;;;;;;;18.17;17.77;;;;;;;;;;5028752;28;20052;-46
2021/05/04 05:58:27;;;;;;;19.17;18.73;;;;;;;;;;5023826;28;20065;-47
2021/05/04 06:00:55;;;;;;;18.05;17.63;;;;;;;;;;5028834;28;20041;-45
2021/05/04 06:03:22;;;;;;;17.98;17.58;;;;;;;;;;5026362;28;20071;-44
2021/05/04 06:05:49;;;;;;;16.77;16.45;;;;;;;;;;5028341;28;20060;-45
2021/05/04 06:08:15;;;;;;;14.90;14.68;;;;;;;;;;5026851;28;20374;-45
2021/05/04 06:10:41;;;;;;;6.38;6.18;;;;;;;;;;5024724;28;20040;-46
2021/05/04 06:13:08;;;;;;;4.68;3.75;;;;;;;;;;5027509;28;20442;-44
2021/05/04 06:15:35;;;;;;;2.55;2.55;;;;;;;;;;5029934;28;20033;-44
2021/05/04 06:18:01;;;;;;;3.55;3.50;;;;;;;;;;5028569;28;20048;-47
2021/05/04 06:20:27;;;;;;;2.95;2.42;;;;;;;;;;5024077;28;20056;-46
2021/05/04 06:22:54;;;;;;;2.55;2.45;;;;;;;;;;5029822;28;20057;-45
2021/05/04 06:25:20;;;;;;;4.38;3.00;;;;;;;;;;5026714;28;20425;-44
2021/05/04 06:27:46;;;;;;;3.53;3.35;;;;;;;;;;5028426;28;20092;-44
2021/05/04 06:30:13;;;;;;;2.78;2.67;;;;;;;;;;5028291;28;20091;-45
2021/05/04 06:32:40;;;;;;;6.43;3.17;;;;;;;;;;5026760;28;20044;-45
2021/05/04 06:35:08;;;;;;;2.90;2.90;;;;;;;;;;5028109;28;20049;-45
2021/05/04 06:37:34;;;;;;;7.60;3.45;;;;;;;;;;5022317;28;20049;-47
2021/05/04 06:40:01;;;;;;;3.05;2.85;;;;;;;;;;5029089;28;20036;-44
2021/05/04 06:42:27;;;;;;;2.70;2.50;;;;;;;;;;5027946;28;20049;-44
2021/05/04 06:44:54;;;;;;;6.07;3.15;;;;;;;;;;5028105;28;20111;-45
2021/05/04 06:47:20;;;;;;;2.22;2.22;;;;;;;;;;5028188;28;20052;-46
2021/05/04 06:49:46;;;;;;;3.05;3.05;;;;;;;;;;5026329;28;20125;-44
2021/05/04 06:52:12;;;;;;;3.10;2.85;;;;;;;;;;5028791;28;20037;-45
2021/05/04 06:54:40;;;;;;;2.53;2.42;;;;;;;;;;5027362;28;20033;-44
2021/05/04 06:57:06;;;;;;;2.22;2.08;;;;;;;;;;5013101;28;20115;-44
2021/05/04 06:59:33;;;;;;;2.88;2.55;;;;;;;;;;5028855;28;20041;-47
2021/05/04 07:02:01;;;;;;;2.22;1.80;;;;;;;;;;5027704;28;20041;-47
2021/05/04 07:04:28;;;;;;;4.15;2.28;;;;;;;;;;5022219;28;20046;-46
2021/05/04 07:06:54;;;;;;;3.22;2.17;;;;;;;;;;5023809;28;20127;-47
2021/05/04 07:09:20;;;;;;;1.77;1.67;;;;;;;;;;5013157;28;20128;-45
2021/05/04 07:11:47;;;;;;;1.65;1.65;;;;;;;;;;5027262;28;20044;-45
2021/05/04 07:14:13;;;;;;;4.93;1.50;;;;;;;;;;5026489;28;20124;-44
2021/05/04 07:16:40;;;;;;;1.60;1.20;;;;;;;;;;5028217;28;20034;-45
2021/05/04 07:19:06;;;;;;;12.27;2.00;;;;;;;;;;5021870;28;20137;-44
2021/05/04 07:21:34;;;;;;;2.00;1.70;;;;;;;;;;5015062;28;20057;-46
2021/05/04 07:24:00;;;;;;;4.05;1.75;;;;;;;;;;5027489;28;20423;-45
2021/05/04 07:26:27;;;;;;;1.38;1.38;;;;;;;;;;5027808;28;20076;-44
2021/05/04 07:28:53;;;;;;;2.65;1.20;;;;;;;;;;5029036;28;20061;-45
2021/05/04 07:31:20;;;;;;;2.05;1.17;;;;;;;;;;5026202;28;20041;-45
2021/05/04 07:33:47;;;;;;;1.58;1.48;;;;;;;;;;5020121;28;20049;-45
2021/05/04 07:36:16;;;;;;;2.33;1.48;;;;;;;;;;5026851;28;20080;-45
2021/05/04 07:38:42;;;;;;;1.88;1.30;;;;;;;;;;5017703;28;20041;-48
2021/05/04 07:41:08;;;;;;;1.45;1.42;;;;;;;;;;5032268;28;20041;-48
2021/05/04 07:43:35;;;;;;;3.92;1.40;;;;;;;;;;5028349;28;20544;-47
2021/05/04 07:46:03;;;;;;;3.60;2.50;;;;;;;;;;5030219;28;20061;-47
2021/05/04 07:48:30;;;;;;;4.78;1.48;;;;;;;;;;5028749;28;20091;-45
2021/05/04 07:50:56;;;;;;;5.65;1.63;;;;;;;;;;5014550;28;20037;-47
2021/05/04 07:53:23;;;;;;;3.22;1.30;;;;;;;;;;5031456;28;20045;-47
2021/05/04 07:55:49;;;;;;;2.60;1.42;;;;;;;;;;5030251;28;20596;-47
2021/05/04 07:58:16;;;;;;;4.00;1.35;;;;;;;;;;5029254;28;20053;-45
2021/05/04 08:00:42;;;;;;;2.75;1.30;;;;;;;;;;5030372;28;20045;-45
2021/05/04 08:03:09;;;;;;;3.45;1.70;;;;;;;;;;5023259;28;20504;-47
2021/05/04 08:05:35;;;;;;;1.33;1.10;;;;;;;;;;5030834;28;20458;-45
2021/05/04 08:08:02;;;;;;;3.08;1.58;;;;;;;;;;5018169;28;20382;-45
2021/05/04 08:10:28;;;;;;;1.27;1.17;;;;;;;;;;5021429;28;20050;-45
2021/05/04 08:12:54;;;;;;;1.92;1.33;;;;;;;;;;5022510;28;20044;-45
2021/05/04 08:15:22;;;;;;;5.50;1.30;;;;;;;;;;5021015;28;20074;-44
2021/05/04 08:17:56;;;;;;;4.32;1.55;;;;;;;;;;5028671;28;20045;-49
2021/05/04 08:20:26;;;;;;;3.15;1.08;;;;;;;;;;5029808;28;20397;-46
2021/05/04 08:22:52;;;;;;;1.80;1.30;;;;;;;;;;5023424;28;20052;-46
2021/05/04 08:25:23;;;;;;;3.72;1.00;;;;;;;;;;5020769;28;20065;-45
2021/05/04 08:27:49;;;;;;;1.08;1.00;;;;;;;;;;5022806;28;20045;-44
2021/05/04 08:30:16;;;;;;;5.25;0.90;;;;;;;;;;5025265;28;20033;-45
2021/05/04 08:32:55;;;;;;;2.92;1.00;;;;;;;;;;5029173;28;20116;-45
2021/05/04 08:35:24;;;;;;;3.63;1.25;;;;;;;;;;5030417;28;20041;-44
2021/05/04 08:37:51;;;;;;;1.38;0.90;;;;;;;;;;5028534;28;20059;-45
2021/05/04 08:40:17;;;;;;;2.65;0.90;;;;;;;;;;5024792;28;20081;-45
2021/05/04 08:42:44;;;;;;;1.42;1.00;;;;;;;;;;5025202;28;20044;-46
2021/05/04 08:45:12;;;;;;;1.80;0.80;;;;;;;;;;5012845;28;20037;-45
2021/05/04 08:47:38;;;;;;;1.15;0.93;;;;;;;;;;5030847;28;20482;-44
2021/05/04 08:50:05;;;;;;;2.08;1.00;;;;;;;;;;5028614;28;20041;-45
2021/05/04 08:52:31;;;;;;;1.95;0.90;;;;;;;;;;5030947;28;20616;-44
2021/05/04 08:54:58;;;;;;;1.40;0.90;;;;;;;;;;5028185;28;20056;-49
2021/05/04 08:57:24;;;;;;;5.97;0.90;;;;;;;;;;5030258;28;20127;-44
2021/05/04 08:59:50;;;;;;;6.47;0.90;;;;;;;;;;5029498;28;20478;-45
2021/05/04 09:02:19;;;;;;;1.55;1.00;;;;;;;;;;5030227;28;20137;-44
2021/05/04 09:04:56;;;;;;;1.75;0.90;;;;;;;;;;5031237;28;20518;-44
2021/05/04 09:07:31;;;;;;;7.53;0.98;;;;;;;;;;5023826;28;20491;-47
2021/05/04 09:12:59;;;;;;;1.40;1.00;;;;;;;;;;5021533;28;20072;-46
2021/05/04 09:15:26;;;;;;;;;;;;;;;;;;5021252;28;20045;-44
2021/05/04 09:17:53;;;;;;;2.33;0.90;;;;;;;;;;5029861;28;20008;-45
2021/05/04 09:20:29;;;;;;;2.33;1.00;;;;;;;;;;5027906;28;20033;-44
2021/05/04 09:23:08;;;;;;;3.97;1.00;;;;;;;;;;5029037;28;20033;-44
2021/05/04 09:25:35;;;;;;;1.98;1.10;;;;;;;;;;5028301;28;20042;-45
2021/05/04 09:28:02;;;;;;;0.90;0.90;;;;;;;;;;5029729;28;20052;-45
2021/05/04 09:30:29;;;;;;;1.85;1.00;;;;;;;;;;5031069;28;20081;-48
2021/05/04 09:32:55;;;;;;;1.70;0.90;;;;;;;;;;5029467;28;20041;-47
2021/05/04 09:35:29;;;;;;;4.30;1.23;;;;;;;;;;5021732;28;20555;-45
2021/05/04 09:38:08;;;;;;;1.15;0.90;;;;;;;;;;5029065;28;20045;-45
2021/05/04 09:40:37;;;;;;;1.80;1.00;;;;;;;;;;5026884;28;20038;-44
2021/05/04 09:43:20;;;;;;;2.33;1.00;;;;;;;;;;5029872;28;20105;-45
2021/05/04 09:45:54;;;;;;;4.67;1.13;;;;;;;;;;5029120;28;20044;-45
2021/05/04 09:48:24;;;;;;;3.05;0.93;;;;;;;;;;5025834;28;20057;-48
2021/05/04 09:50:53;;;;;;;1.70;0.98;;;;;;;;;;5019872;28;20045;-45
2021/05/04 09:53:23;;;;;;;3.05;1.10;;;;;;;;;;5022708;28;20049;-44
2021/05/04 09:55:50;;;;;;;1.75;1.65;;;;;;;;;;5029505;28;20038;-45
2021/05/04 09:58:17;;;;;;;2.88;1.02;;;;;;;;;;5028098;28;20038;-48
2021/05/04 10:00:43;;;;;;;2.45;1.00;;;;;;;;;;5024576;28;20048;-46
2021/05/04 10:03:10;;;;;;;1.13;1.00;;;;;;;;;;5026795;28;20041;-46
2021/05/04 10:05:36;;;;;;;0.90;0.90;;;;;;;;;;5027533;28;20037;-46
2021/05/04 10:08:03;;;;;;;2.25;1.00;;;;;;;;;;5028568;28;20126;-48
2021/05/04 10:10:29;;;;;;;1.33;0.90;;;;;;;;;;5028318;28;20041;-48
2021/05/04 10:12:56;;;;;;;1.00;0.90;;;;;;;;;;5025375;28;20058;-44
2021/05/04 10:15:23;;;;;;;2.08;1.00;;;;;;;;;;5029418;28;20486;-44
2021/05/04 10:17:49;;;;;;;1.38;1.27;;;;;;;;;;5028106;28;20037;-44
2021/05/04 10:20:19;;;;;;;1.63;0.90;;;;;;;;;;5025603;28;20132;-46
2021/05/04 10:22:48;;;;;;;1.05;0.90;;;;;;;;;;5024438;28;20033;-45
2021/05/04 10:25:19;;;;;;;2.70;1.00;;;;;;;;;;5024885;28;20049;-45
2021/05/04 10:27:49;;;;;;;1.10;1.00;;;;;;;;;;5025863;28;20045;-44
2021/05/04 10:30:18;;;;;;;1.90;1.30;;;;;;;;;;5018276;28;20056;-45
2021/05/04 10:32:50;;;;;;;1.15;0.93;;;;;;;;;;5026129;28;20042;-45
2021/05/04 10:35:29;;;;;;;1.67;0.90;;;;;;;;;;5026699;28;20103;-45
2021/05/04 10:37:56;;;;;;;0.80;0.80;;;;;;;;;;5029261;28;20046;-45
2021/05/04 10:40:25;;;;;;;3.55;0.90;;;;;;;;;;5025176;28;20485;-48
2021/05/04 10:42:56;;;;;;;;;;;;;;;;;;5014787;28;20044;-45
2021/05/04 10:45:37;;;;;;;1.35;1.00;;;;;;;;;;5025688;28;19935;-46
2021/05/04 10:48:03;;;;;;;1.35;1.00;;;;;;;;;;5026513;28;20044;-44
2021/05/04 10:50:45;;;;;;;1.30;0.88;;;;;;;;;;5028866;28;20087;-47
2021/05/04 10:53:11;;;;;;;1.25;0.80;;;;;;;;;;5025480;28;20042;-46
2021/05/04 10:55:53;;;;;;;2.22;1.05;;;;;;;;;;5020234;28;20037;-45
2021/05/04 10:58:19;;;;;;;2.78;0.80;;;;;;;;;;5018678;28;20135;-48
2021/05/04 11:00:48;;;;;;;0.70;0.70;;;;;;;;;;5018734;28;20046;-47
2021/05/04 11:03:33;;;;;;;1.60;0.90;;;;;;;;;;5026878;28;20033;-45
2021/05/04 11:06:01;;;;;;;1.35;0.70;;;;;;;;;;5030136;28;20392;-44
2021/05/04 11:08:50;;;;;;;1.98;0.80;;;;;;;;;;5019968;28;20044;-45
2021/05/04 11:11:23;;;;;;;2.28;0.80;;;;;;;;;;5028797;28;20064;-46
2021/05/04 11:13:51;;;;;;;1.17;0.82;;;;;;;;;;5030061;28;20095;-45
2021/05/04 11:16:29;;;;;;;2.83;1.23;;;;;;;;;;5030257;28;20038;-45
2021/05/04 11:19:03;;;;;;;1.95;0.80;;;;;;;;;;5032370;28;20044;-45
2021/05/04 11:21:46;;;;;;;2.15;0.82;;;;;;;;;;5023434;28;20042;-46
2021/05/04 11:24:16;;;;;;;0.80;0.80;;;;;;;;;;5033237;28;20046;-45
2021/05/04 11:26:53;;;;;;;2.15;1.50;;;;;;;;;;5028332;28;20056;-48
2021/05/04 11:29:21;;;;;;;1.90;0.73;;;;;;;;;;5019912;28;20048;-49
2021/05/04 11:31:48;;;;;;;3.25;0.80;;;;;;;;;;5032057;28;20046;-45
2021/05/04 11:34:33;;;;;;;3.03;0.80;;;;;;;;;;5024372;28;20057;-47
2021/05/04 11:36:59;;;;;;;2.45;0.80;;;;;;;;;;5029012;28;20029;-47
2021/05/04 11:39:25;;;;;;;3.60;0.80;;;;;;;;;;5025257;28;20034;-45
2021/05/04 11:41:55;;;;;;;4.57;0.90;;;;;;;;;;5024215;28;20045;-47
2021/05/04 11:44:25;;;;;;;3.22;0.90;;;;;;;;;;5029527;28;20064;-48
2021/05/04 11:46:51;;;;;;;0.80;0.80;;;;;;;;;;5028329;28;20353;-45
2021/05/04 11:49:27;;;;;;;1.20;0.80;;;;;;;;;;5027261;28;20037;-48
2021/05/04 11:52:06;;;;;;;4.10;0.90;;;;;;;;;;5028185;28;20702;-49
2021/05/04 11:54:34;;;;;;;0.82;0.80;;;;;;;;;;5027927;28;20095;-46
2021/05/04 11:57:01;;;;;;;1.00;0.80;;;;;;;;;;5028038;28;20406;-44
2021/05/04 11:59:51;;;;;;;0.80;0.80;;;;;;;;;;5026324;28;20132;-44
2021/05/04 12:02:27;;;;;;;2.15;0.80;;;;;;;;;;5017372;28;20449;-44
2021/05/04 12:04:54;;;;;;;3.28;0.82;;;;;;;;;;5030094;28;20033;-45
2021/05/04 12:07:33;;;;;;;4.45;1.05;;;;;;;;;;5027832;28;20056;-44
2021/05/04 12:09:59;;;;;;;0.98;0.80;;;;;;;;;;5028932;28;20936;-46
2021/05/04 12:12:39;;;;;;;1.52;0.90;;;;;;;;;;5029546;28;20041;-44
2021/05/04 12:15:05;;;;;;;0.90;0.90;;;;;;;;;;5020509;28;20042;-45
2021/05/04 12:17:32;;;;;;;3.28;0.88;;;;;;;;;;5030635;28;20045;-44
2021/05/04 12:20:15;;;;;;;2.25;0.90;;;;;;;;;;5030009;28;20440;-47
2021/05/04 12:22:48;;;;;;;0.80;0.80;;;;;;;;;;5030993;28;20041;-44
2021/05/04 12:25:15;;;;;;;1.13;0.90;;;;;;;;;;5027795;28;20044;-45
2021/05/04 12:27:42;;;;;;;1.00;0.90;;;;;;;;;;5022363;28;20044;-44
2021/05/04 12:30:10;;;;;;;1.23;1.05;;;;;;;;;;5021717;28;20061;-47
2021/05/04 12:32:37;;;;;;;0.80;0.80;;;;;;;;;;5021320;28;20474;-45
2021/05/04 12:35:17;;;;;;;1.10;1.10;;;;;;;;;;5045269;28;20428;-46
2021/05/04 12:37:44;;;;;;;0.80;0.80;;;;;;;;;;5030889;28;20050;-44
2021/05/04 12:40:14;;;;;;;2.40;0.90;;;;;;;;;;5034437;28;20036;-45
2021/05/04 12:42:40;;;;;;;1.27;0.90;;;;;;;;;;5029740;28;20052;-44
2021/05/04 12:45:07;;;;;;;0.82;0.82;;;;;;;;;;5029714;28;20041;-44
2021/05/04 12:47:34;;;;;;;2.70;1.00;;;;;;;;;;5025507;28;20061;-45
2021/05/04 12:50:00;;;;;;;1.42;0.90;;;;;;;;;;5027601;28;20107;-45
2021/05/04 12:52:35;;;;;;;1.40;0.98;;;;;;;;;;5028811;28;20029;-44
2021/05/04 12:55:06;;;;;;;0.90;0.90;;;;;;;;;;5031121;28;20049;-44
2021/05/04 12:57:32;;;;;;;2.13;1.00;;;;;;;;;;5029031;28;20034;-46
2021/05/04 13:00:11;;;;;;;6.07;1.35;;;;;;;;;;5018080;28;20038;-46
2021/05/04 13:02:37;;;;;;;1.08;1.00;;;;;;;;;;5020499;28;20050;-45
2021/05/04 13:05:09;;;;;;;3.42;1.00;;;;;;;;;;5022247;28;20042;-46
2021/05/04 13:07:46;;;;;;;1.55;1.00;;;;;;;;;;5030182;28;20061;-45
2021/05/04 13:32:21;;;;;;;2.17;0.93;;;;;;;;;;5013562;28;20045;-46
2021/05/04 13:35:01;;;;;;;0.90;0.90;;;;;;;;;;5029764;28;20116;-45
2021/05/04 13:37:38;;;;;;;2.78;0.90;;;;;;;;;;5027180;28;20033;-44
2021/05/04 13:40:26;;;;;;;3.03;1.05;;;;;;;;;;5014096;28;20041;-45
2021/05/04 13:48:29;;;;;;;1.85;1.00;;;;;;;;;;5013868;28;20038;-46
2021/05/04 13:50:56;;;;;;;1.23;1.23;;;;;;;;;;5029434;28;20103;-44
2021/05/04 13:53:22;;;;;;;1.48;1.00;;;;;;;;;;5027093;28;20041;-44
2021/05/04 13:55:48;;;;;;;1.98;1.15;;;;;;;;;;5027301;28;20116;-45
2021/05/04 13:58:16;;;;;;;1.60;1.00;;;;;;;;;;5025513;28;20091;-44
2021/05/04 14:03:48;;;;;;;1.02;0.98;;;;;;;;;;5016211;28;20088;-46
2021/05/04 14:14:48;;;;;;;1.55;1.20;;;;;;;;;;5029315;28;20552;-44
2021/05/04 14:28:25;;;;;;;2.47;1.00;;;;;;;;;;5029030;28;20038;-44
2021/05/04 14:30:51;;;;;;;1.33;1.10;;;;;;;;;;5028503;28;20107;-46
2021/05/04 14:33:17;;;;;;;1.00;1.00;;;;;;;;;;5028370;28;20099;-46
2021/05/04 14:35:47;;;;;;;1.75;0.90;;;;;;;;;;5029503;28;20428;-47
2021/05/04 14:38:38;;;;;;;3.55;0.90;;;;;;;;;;5027631;28;20037;-48
2021/05/04 14:46:26;;;;;;;2.03;0.90;;;;;;;;;;5025847;28;20033;-44
2021/05/04 15:01:50;;;;;;;0.90;0.90;;;;;;;;;;5032915;28;20034;-45
2021/05/04 15:04:17;;;;;;;1.40;0.80;;;;;;;;;;5018746;28;20065;-48
2021/05/04 15:06:44;;;;;;;0.80;0.80;;;;;;;;;;5026769;28;20034;-45
2021/05/04 15:09:11;;;;;;;2.53;1.00;;;;;;;;;;5031091;28;20081;-45
2021/05/04 15:11:42;;;;;;;1.30;1.05;;;;;;;;;;5023868;28;20493;-46
2021/05/04 15:14:20;;;;;;;0.80;0.80;;;;;;;;;;5027798;28;20429;-49
2021/05/04 15:16:50;;;;;;;0.90;0.70;;;;;;;;;;5015455;28;20034;-45
2021/05/04 15:22:05;;;;;;;3.00;1.02;;;;;;;;;;5029924;28;20067;-45
2021/05/04 15:24:31;;;;;;;1.77;0.80;;;;;;;;;;5016873;28;20494;-47
2021/05/04 15:26:57;;;;;;;1.02;1.00;;;;;;;;;;5026982;28;20516;-45
2021/05/04 15:29:24;;;;;;;1.85;0.80;;;;;;;;;;5024007;28;20083;-45
2021/05/04 15:32:01;;;;;;;3.90;1.00;;;;;;;;;;5022585;28;20056;-44
2021/05/04 15:34:34;;;;;;;1.70;0.80;;;;;;;;;;5025663;28;20033;-45
2021/05/04 15:37:00;;;;;;;0.95;0.95;;;;;;;;;;5030908;28;20041;-46
2021/05/04 15:39:27;;;;;;;2.22;1.00;;;;;;;;;;5032538;28;20037;-45
2021/05/04 15:41:54;;;;;;;1.27;0.80;;;;;;;;;;5030130;28;20042;-47
2021/05/04 15:44:22;;;;;;;1.42;1.42;;;;;;;;;;5029410;28;20049;-48
2021/05/04 15:49:37;;;;;;;3.22;1.20;;;;;;;;;;5028228;28;20060;-45
2021/05/04 15:52:20;;;;;;;1.65;0.80;;;;;;;;;;5020474;28;20056;-44
2021/05/04 16:08:28;;;;;;;1.00;1.00;;;;;;;;;;5031579;28;20042;-45
2021/05/04 16:10:54;;;;;;;2.80;1.08;;;;;;;;;;5030220;28;20043;-45